sensor_id;sensor_type;location;lat;lon;timestamp;pressure;altitude;pressure_sealevel;temperature
69704;BMP280;56967;43.538;-5.646;2022-11-15T00:00:33;100654.81;;;27.89
69704;BMP280;56967;43.538;-5.646;2022-11-15T00:02:59;100648.63;;;26.08
69704;BMP280;56967;43.538;-5.646;2022-11-15T00:05:24;100644.41;;;26.19
69704;BMP280;56967;43.538;-5.646;2022-11-15T00:07:50;100639.06;;;27.91
69704;BMP280;56967;43.538;-5.646;2022-11-15T00:10:16;100633.38;;;23.37
69704;BMP280;56967;43.538;-5.646;2022-11-15T00:12:41;100617.56;;;23.80
69704;BMP280;56967;43.538;-5.646;2022-11-15T00:15:07;100612.84;;;23.63
69704;BMP280;56967;43.538;-5.646;2022-11-15T00:17:32;100604.47;;;22.49
69704;BMP280;56967;43.538;-5.646;2022-11-15T00:19:58;100612.59;;;22.71
69704;BMP280;56967;43.538;-5.646;2022-11-15T00:22:24;100606.44;;;22.84
69704;BMP280;56967;43.538;-5.646;2022-11-15T00:24:49;100607.69;;;24.62
69704;BMP280;56967;43.538;-5.646;2022-11-15T00:27:15;100585.59;;;25.63
69704;BMP280;56967;43.538;-5.646;2022-11-15T00:29:40;100586.69;;;24.98
69704;BMP280;56967;43.538;-5.646;2022-11-15T00:32:11;100574.22;;;27.67
69704;BMP280;56967;43.538;-5.646;2022-11-15T00:34:36;100568.13;;;26.68
69704;BMP280;56967;43.538;-5.646;2022-11-15T00:37:02;100558.38;;;27.08
69704;BMP280;56967;43.538;-5.646;2022-11-15T00:39:27;100553.41;;;25.95
69704;BMP280;56967;43.538;-5.646;2022-11-15T00:41:53;100543.38;;;26.04
69704;BMP280;56967;43.538;-5.646;2022-11-15T00:44:18;100538.22;;;25.62
69704;BMP280;56967;43.538;-5.646;2022-11-15T00:46:44;100534.75;;;24.38
69704;BMP280;56967;43.538;-5.646;2022-11-15T00:49:09;100535.09;;;24.88
69704;BMP280;56967;43.538;-5.646;2022-11-15T00:51:35;100537.91;;;25.55
69704;BMP280;56967;43.538;-5.646;2022-11-15T00:54:00;100544.03;;;23.98
69704;BMP280;56967;43.538;-5.646;2022-11-15T00:56:26;100527.50;;;26.53
69704;BMP280;56967;43.538;-5.646;2022-11-15T00:58:52;100536.00;;;25.09
69704;BMP280;56967;43.538;-5.646;2022-11-15T01:01:18;100532.50;;;25.17
69704;BMP280;56967;43.538;-5.646;2022-11-15T01:03:43;100541.56;;;25.59
69704;BMP280;56967;43.538;-5.646;2022-11-15T01:06:10;100549.00;;;26.41
69704;BMP280;56967;43.538;-5.646;2022-11-15T01:08:38;100553.03;;;26.35
69704;BMP280;56967;43.538;-5.646;2022-11-15T01:11:07;100549.44;;;25.64
69704;BMP280;56967;43.538;-5.646;2022-11-15T01:13:34;100538.88;;;25.50
69704;BMP280;56967;43.538;-5.646;2022-11-15T01:16:08;100547.75;;;26.59
69704;BMP280;56967;43.538;-5.646;2022-11-15T01:18:34;100549.63;;;26.79
69704;BMP280;56967;43.538;-5.646;2022-11-15T01:20:59;100547.75;;;23.88
69704;BMP280;56967;43.538;-5.646;2022-11-15T01:23:24;100538.72;;;26.75
69704;BMP280;56967;43.538;-5.646;2022-11-15T01:25:50;100535.53;;;25.91
69704;BMP280;56967;43.538;-5.646;2022-11-15T01:28:16;100542.69;;;27.59
69704;BMP280;56967;43.538;-5.646;2022-11-15T01:30:41;100541.44;;;25.84
69704;BMP280;56967;43.538;-5.646;2022-11-15T01:33:07;100543.56;;;25.70
69704;BMP280;56967;43.538;-5.646;2022-11-15T01:35:32;100539.19;;;26.89
69704;BMP280;56967;43.538;-5.646;2022-11-15T01:37:58;100535.00;;;25.31
69704;BMP280;56967;43.538;-5.646;2022-11-15T01:40:23;100531.03;;;26.45
69704;BMP280;56967;43.538;-5.646;2022-11-15T01:42:49;100531.81;;;28.07
69704;BMP280;56967;43.538;-5.646;2022-11-15T01:45:15;100526.22;;;27.28
69704;BMP280;56967;43.538;-5.646;2022-11-15T01:47:53;100523.94;;;28.02
69704;BMP280;56967;43.538;-5.646;2022-11-15T01:50:23;100509.94;;;27.36
69704;BMP280;56967;43.538;-5.646;2022-11-15T01:52:50;100504.50;;;23.98
69704;BMP280;56967;43.538;-5.646;2022-11-15T01:55:19;100502.22;;;23.75
69704;BMP280;56967;43.538;-5.646;2022-11-15T01:57:49;100500.38;;;23.84
69704;BMP280;56967;43.538;-5.646;2022-11-15T02:00:16;100484.50;;;24.47
69704;BMP280;56967;43.538;-5.646;2022-11-15T02:02:42;100474.03;;;24.20
69704;BMP280;56967;43.538;-5.646;2022-11-15T02:05:08;100459.13;;;25.08
69704;BMP280;56967;43.538;-5.646;2022-11-15T02:07:34;100455.25;;;23.94
69704;BMP280;56967;43.538;-5.646;2022-11-15T02:10:10;100459.47;;;24.72
69704;BMP280;56967;43.538;-5.646;2022-11-15T02:12:36;100448.38;;;24.82
69704;BMP280;56967;43.538;-5.646;2022-11-15T02:15:03;100456.34;;;24.10
69704;BMP280;56967;43.538;-5.646;2022-11-15T02:17:51;100454.91;;;23.39
69704;BMP280;56967;43.538;-5.646;2022-11-15T02:29:05;100419.69;;;25.70
69704;BMP280;56967;43.538;-5.646;2022-11-15T02:31:59;100409.69;;;24.75
69704;BMP280;56967;43.538;-5.646;2022-11-15T02:37:07;100409.31;;;24.93
69704;BMP280;56967;43.538;-5.646;2022-11-15T02:39:49;100407.72;;;25.80
69704;BMP280;56967;43.538;-5.646;2022-11-15T02:42:26;100399.53;;;26.18
69704;BMP280;56967;43.538;-5.646;2022-11-15T02:45:14;100395.28;;;25.75
69704;BMP280;56967;43.538;-5.646;2022-11-15T02:47:45;100400.56;;;26.70
69704;BMP280;56967;43.538;-5.646;2022-11-15T02:50:13;100391.59;;;27.14
69704;BMP280;56967;43.538;-5.646;2022-11-15T02:52:44;100404.53;;;26.72
69704;BMP280;56967;43.538;-5.646;2022-11-15T02:58:18;100395.31;;;26.41
69704;BMP280;56967;43.538;-5.646;2022-11-15T03:09:09;100344.16;;;27.01
69704;BMP280;56967;43.538;-5.646;2022-11-15T03:11:41;100336.97;;;28.00
69704;BMP280;56967;43.538;-5.646;2022-11-15T03:14:29;100324.56;;;27.83
69704;BMP280;56967;43.538;-5.646;2022-11-15T03:22:15;100319.44;;;28.22
69704;BMP280;56967;43.538;-5.646;2022-11-15T03:24:43;100312.22;;;27.43
69704;BMP280;56967;43.538;-5.646;2022-11-15T03:27:13;100311.03;;;26.20
69704;BMP280;56967;43.538;-5.646;2022-11-15T03:29:44;100313.72;;;25.87
69704;BMP280;56967;43.538;-5.646;2022-11-15T03:32:15;100300.34;;;25.37
69704;BMP280;56967;43.538;-5.646;2022-11-15T03:35:02;100287.38;;;25.92
69704;BMP280;56967;43.538;-5.646;2022-11-15T03:38:11;100273.16;;;25.51
69704;BMP280;56967;43.538;-5.646;2022-11-15T03:40:45;100264.56;;;23.26
69704;BMP280;56967;43.538;-5.646;2022-11-15T03:45:51;100237.66;;;25.16
69704;BMP280;56967;43.538;-5.646;2022-11-15T03:48:30;100241.16;;;24.12
69704;BMP280;56967;43.538;-5.646;2022-11-15T03:50:56;100259.25;;;25.28
69704;BMP280;56967;43.538;-5.646;2022-11-15T03:53:21;100266.16;;;24.50
69704;BMP280;56967;43.538;-5.646;2022-11-15T03:55:47;100264.47;;;26.43
69704;BMP280;56967;43.538;-5.646;2022-11-15T03:58:12;100272.91;;;26.09
69704;BMP280;56967;43.538;-5.646;2022-11-15T04:00:38;100264.78;;;26.78
69704;BMP280;56967;43.538;-5.646;2022-11-15T04:03:03;100261.28;;;26.77
69704;BMP280;56967;43.538;-5.646;2022-11-15T04:05:29;100253.69;;;27.74
69704;BMP280;56967;43.538;-5.646;2022-11-15T04:07:54;100252.34;;;28.11
69704;BMP280;56967;43.538;-5.646;2022-11-15T04:10:20;100242.41;;;28.81
69704;BMP280;56967;43.538;-5.646;2022-11-15T04:12:46;100233.22;;;29.47
69704;BMP280;56967;43.538;-5.646;2022-11-15T04:15:21;100220.97;;;27.48
69704;BMP280;56967;43.538;-5.646;2022-11-15T04:17:52;100230.13;;;25.30
69704;BMP280;56967;43.538;-5.646;2022-11-15T04:20:20;100223.66;;;27.76
69704;BMP280;56967;43.538;-5.646;2022-11-15T04:23:07;100211.28;;;26.80
69704;BMP280;56967;43.538;-5.646;2022-11-15T04:25:54;100227.88;;;27.61
69704;BMP280;56967;43.538;-5.646;2022-11-15T04:28:20;100221.84;;;27.25
69704;BMP280;56967;43.538;-5.646;2022-11-15T04:30:46;100208.88;;;27.73
69704;BMP280;56967;43.538;-5.646;2022-11-15T04:33:12;100204.34;;;27.62
69704;BMP280;56967;43.538;-5.646;2022-11-15T04:35:37;100178.28;;;27.10
69704;BMP280;56967;43.538;-5.646;2022-11-15T04:38:04;100147.50;;;26.48
69704;BMP280;56967;43.538;-5.646;2022-11-15T04:40:30;100146.03;;;25.78
69704;BMP280;56967;43.538;-5.646;2022-11-15T04:42:56;100148.91;;;25.61
69704;BMP280;56967;43.538;-5.646;2022-11-15T04:45:22;100139.53;;;26.51
69704;BMP280;56967;43.538;-5.646;2022-11-15T04:47:48;100129.06;;;26.50
69704;BMP280;56967;43.538;-5.646;2022-11-15T04:50:14;100128.78;;;26.39
69704;BMP280;56967;43.538;-5.646;2022-11-15T04:52:50;100123.91;;;27.40
69704;BMP280;56967;43.538;-5.646;2022-11-15T04:55:16;100116.53;;;28.34
69704;BMP280;56967;43.538;-5.646;2022-11-15T04:57:41;100127.00;;;25.95
69704;BMP280;56967;43.538;-5.646;2022-11-15T05:00:13;100128.44;;;25.92
69704;BMP280;56967;43.538;-5.646;2022-11-15T05:02:39;100129.97;;;25.25
69704;BMP280;56967;43.538;-5.646;2022-11-15T05:05:24;100137.25;;;25.57
69704;BMP280;56967;43.538;-5.646;2022-11-15T05:07:49;100135.56;;;25.64
69704;BMP280;56967;43.538;-5.646;2022-11-15T05:10:15;100113.94;;;26.09
69704;BMP280;56967;43.538;-5.646;2022-11-15T05:12:40;100116.22;;;25.50
69704;BMP280;56967;43.538;-5.646;2022-11-15T05:15:06;100110.53;;;25.64
69704;BMP280;56967;43.538;-5.646;2022-11-15T05:17:32;100105.28;;;25.55
69704;BMP280;56967;43.538;-5.646;2022-11-15T05:19:57;100085.88;;;26.22
69704;BMP280;56967;43.538;-5.646;2022-11-15T05:22:23;100082.16;;;25.54
69704;BMP280;56967;43.538;-5.646;2022-11-15T05:24:49;100093.75;;;25.79
69704;BMP280;56967;43.538;-5.646;2022-11-15T05:27:14;100104.44;;;25.99
69704;BMP280;56967;43.538;-5.646;2022-11-15T05:29:40;100099.00;;;26.36
69704;BMP280;56967;43.538;-5.646;2022-11-15T05:32:06;100103.28;;;25.76
69704;BMP280;56967;43.538;-5.646;2022-11-15T05:34:33;100094.53;;;26.40
69704;BMP280;56967;43.538;-5.646;2022-11-15T05:36:59;100101.94;;;25.70
69704;BMP280;56967;43.538;-5.646;2022-11-15T05:39:24;100097.00;;;24.54
69704;BMP280;56967;43.538;-5.646;2022-11-15T05:41:54;100099.66;;;25.60
69704;BMP280;56967;43.538;-5.646;2022-11-15T05:44:22;100090.28;;;26.02
69704;BMP280;56967;43.538;-5.646;2022-11-15T05:46:49;100083.19;;;26.34
69704;BMP280;56967;43.538;-5.646;2022-11-15T05:49:18;100085.00;;;25.94
69704;BMP280;56967;43.538;-5.646;2022-11-15T05:51:46;100093.06;;;26.18
69704;BMP280;56967;43.538;-5.646;2022-11-15T05:54:12;100086.22;;;25.96
69704;BMP280;56967;43.538;-5.646;2022-11-15T05:56:38;100086.78;;;25.78
69704;BMP280;56967;43.538;-5.646;2022-11-15T05:59:04;100090.28;;;26.02
69704;BMP280;56967;43.538;-5.646;2022-11-15T06:01:31;100083.44;;;26.05
69704;BMP280;56967;43.538;-5.646;2022-11-15T06:03:56;100083.66;;;26.12
69704;BMP280;56967;43.538;-5.646;2022-11-15T06:06:22;100093.84;;;25.70
69704;BMP280;56967;43.538;-5.646;2022-11-15T06:08:47;100093.97;;;25.62
69704;BMP280;56967;43.538;-5.646;2022-11-15T06:11:13;100107.69;;;26.17
69704;BMP280;56967;43.538;-5.646;2022-11-15T06:13:38;100107.13;;;26.75
69704;BMP280;56967;43.538;-5.646;2022-11-15T06:16:04;100106.44;;;26.02
69704;BMP280;56967;43.538;-5.646;2022-11-15T06:18:32;100109.59;;;25.92
69704;BMP280;56967;43.538;-5.646;2022-11-15T06:20:59;100102.28;;;26.17
69704;BMP280;56967;43.538;-5.646;2022-11-15T06:23:25;100094.97;;;26.30
69704;BMP280;56967;43.538;-5.646;2022-11-15T06:25:50;100097.06;;;26.60
69704;BMP280;56967;43.538;-5.646;2022-11-15T06:28:16;100093.03;;;26.42
69704;BMP280;56967;43.538;-5.646;2022-11-15T06:30:41;100103.16;;;26.09
69704;BMP280;56967;43.538;-5.646;2022-11-15T06:33:07;100117.44;;;26.73
69704;BMP280;56967;43.538;-5.646;2022-11-15T06:35:34;100111.28;;;27.00
69704;BMP280;56967;43.538;-5.646;2022-11-15T06:38:06;100099.28;;;26.98
69704;BMP280;56967;43.538;-5.646;2022-11-15T06:40:34;100101.72;;;27.03
69704;BMP280;56967;43.538;-5.646;2022-11-15T06:43:00;100113.41;;;27.07
69704;BMP280;56967;43.538;-5.646;2022-11-15T06:45:26;100122.78;;;26.97
69704;BMP280;56967;43.538;-5.646;2022-11-15T06:47:52;100141.72;;;27.72
69704;BMP280;56967;43.538;-5.646;2022-11-15T06:50:18;100150.84;;;27.83
69704;BMP280;56967;43.538;-5.646;2022-11-15T06:52:44;100185.13;;;27.94
69704;BMP280;56967;43.538;-5.646;2022-11-15T06:55:09;100220.31;;;27.11
69704;BMP280;56967;43.538;-5.646;2022-11-15T06:57:36;100235.31;;;27.95
69704;BMP280;56967;43.538;-5.646;2022-11-15T07:00:05;100235.03;;;28.47
69704;BMP280;56967;43.538;-5.646;2022-11-15T07:02:30;100225.34;;;26.61
69704;BMP280;56967;43.538;-5.646;2022-11-15T07:04:56;100249.94;;;26.84
69704;BMP280;56967;43.538;-5.646;2022-11-15T07:07:21;100251.53;;;26.73
69704;BMP280;56967;43.538;-5.646;2022-11-15T07:09:47;100259.84;;;26.80
69704;BMP280;56967;43.538;-5.646;2022-11-15T07:12:13;100256.69;;;26.42
69704;BMP280;56967;43.538;-5.646;2022-11-15T07:14:38;100254.03;;;26.54
69704;BMP280;56967;43.538;-5.646;2022-11-15T07:17:04;100261.50;;;26.96
69704;BMP280;56967;43.538;-5.646;2022-11-15T07:19:30;100331.75;;;26.52
69704;BMP280;56967;43.538;-5.646;2022-11-15T07:21:56;100343.28;;;25.54
69704;BMP280;56967;43.538;-5.646;2022-11-15T07:24:22;100348.34;;;25.35
69704;BMP280;56967;43.538;-5.646;2022-11-15T07:26:47;100368.97;;;24.93
69704;BMP280;56967;43.538;-5.646;2022-11-15T07:29:13;100389.94;;;25.38
69704;BMP280;56967;43.538;-5.646;2022-11-15T07:31:38;100421.16;;;25.01
69704;BMP280;56967;43.538;-5.646;2022-11-15T07:34:04;100420.78;;;24.22
69704;BMP280;56967;43.538;-5.646;2022-11-15T07:36:29;100433.16;;;23.19
69704;BMP280;56967;43.538;-5.646;2022-11-15T07:38:55;100432.16;;;23.06
69704;BMP280;56967;43.538;-5.646;2022-11-15T07:41:20;100446.00;;;23.78
69704;BMP280;56967;43.538;-5.646;2022-11-15T07:43:46;100453.69;;;24.53
69704;BMP280;56967;43.538;-5.646;2022-11-15T07:46:11;100486.53;;;22.98
69704;BMP280;56967;43.538;-5.646;2022-11-15T07:48:38;100424.06;;;22.98
69704;BMP280;56967;43.538;-5.646;2022-11-15T07:51:07;100474.00;;;23.47
69704;BMP280;56967;43.538;-5.646;2022-11-15T07:53:32;100475.41;;;22.47
69704;BMP280;56967;43.538;-5.646;2022-11-15T07:55:58;100497.31;;;23.07
69704;BMP280;56967;43.538;-5.646;2022-11-15T07:58:23;100513.00;;;23.92
69704;BMP280;56967;43.538;-5.646;2022-11-15T08:00:49;100504.41;;;26.02
69704;BMP280;56967;43.538;-5.646;2022-11-15T08:03:15;100495.88;;;23.62
69704;BMP280;56967;43.538;-5.646;2022-11-15T08:05:42;100522.94;;;24.56
69704;BMP280;56967;43.538;-5.646;2022-11-15T08:08:09;100520.38;;;24.77
69704;BMP280;56967;43.538;-5.646;2022-11-15T08:10:36;100523.56;;;24.53
69704;BMP280;56967;43.538;-5.646;2022-11-15T08:13:06;100520.81;;;25.88
69704;BMP280;56967;43.538;-5.646;2022-11-15T08:15:34;100505.59;;;25.92
69704;BMP280;56967;43.538;-5.646;2022-11-15T08:18:02;100491.22;;;25.13
69704;BMP280;56967;43.538;-5.646;2022-11-15T08:20:29;100503.38;;;25.57
69704;BMP280;56967;43.538;-5.646;2022-11-15T08:22:59;100491.13;;;24.75
69704;BMP280;56967;43.538;-5.646;2022-11-15T08:25:26;100488.28;;;24.46
69704;BMP280;56967;43.538;-5.646;2022-11-15T08:27:59;100496.75;;;25.54
69704;BMP280;56967;43.538;-5.646;2022-11-15T08:30:25;100495.53;;;25.43
69704;BMP280;56967;43.538;-5.646;2022-11-15T08:32:52;100498.28;;;25.35
69704;BMP280;56967;43.538;-5.646;2022-11-15T08:35:18;100506.63;;;25.42
69704;BMP280;56967;43.538;-5.646;2022-11-15T08:37:44;100506.63;;;25.42
69704;BMP280;56967;43.538;-5.646;2022-11-15T08:40:09;100507.19;;;25.18
69704;BMP280;56967;43.538;-5.646;2022-11-15T08:42:35;100501.72;;;24.29
69704;BMP280;56967;43.538;-5.646;2022-11-15T08:45:02;100501.97;;;25.59
69704;BMP280;56967;43.538;-5.646;2022-11-15T08:47:28;100494.97;;;25.29
69704;BMP280;56967;43.538;-5.646;2022-11-15T08:49:53;100498.13;;;26.19
69704;BMP280;56967;43.538;-5.646;2022-11-15T08:52:19;100504.72;;;26.62
69704;BMP280;56967;43.538;-5.646;2022-11-15T08:54:44;100488.03;;;26.28
69704;BMP280;56967;43.538;-5.646;2022-11-15T08:57:10;100495.22;;;26.24
69704;BMP280;56967;43.538;-5.646;2022-11-15T08:59:36;100495.28;;;27.37
69704;BMP280;56967;43.538;-5.646;2022-11-15T09:02:02;100489.56;;;25.67
69704;BMP280;56967;43.538;-5.646;2022-11-15T09:04:29;100494.13;;;25.75
69704;BMP280;56967;43.538;-5.646;2022-11-15T09:06:54;100485.03;;;25.79
69704;BMP280;56967;43.538;-5.646;2022-11-15T09:09:20;100499.69;;;26.40
69704;BMP280;56967;43.538;-5.646;2022-11-15T09:11:45;100503.94;;;26.94
69704;BMP280;56967;43.538;-5.646;2022-11-15T09:14:14;100512.13;;;26.86
69704;BMP280;56967;43.538;-5.646;2022-11-15T09:16:40;100523.56;;;27.76
69704;BMP280;56967;43.538;-5.646;2022-11-15T09:19:05;100535.34;;;25.20
69704;BMP280;56967;43.538;-5.646;2022-11-15T09:21:31;100523.16;;;25.69
69704;BMP280;56967;43.538;-5.646;2022-11-15T09:23:57;100535.47;;;25.70
69704;BMP280;56967;43.538;-5.646;2022-11-15T09:26:23;100543.47;;;25.87
69704;BMP280;56967;43.538;-5.646;2022-11-15T09:28:49;100534.28;;;25.88
69704;BMP280;56967;43.538;-5.646;2022-11-15T09:31:14;100532.72;;;24.69
69704;BMP280;56967;43.538;-5.646;2022-11-15T09:33:43;100551.75;;;25.45
69704;BMP280;56967;43.538;-5.646;2022-11-15T09:36:09;100548.03;;;26.25
69704;BMP280;56967;43.538;-5.646;2022-11-15T09:38:35;100552.63;;;26.77
69704;BMP280;56967;43.538;-5.646;2022-11-15T09:49:00;100548.81;;;27.95
69704;BMP280;56967;43.538;-5.646;2022-11-15T09:51:47;100551.34;;;27.64
69704;BMP280;56967;43.538;-5.646;2022-11-15T09:54:28;100544.66;;;25.32
69704;BMP280;56967;43.538;-5.646;2022-11-15T09:57:13;100533.34;;;25.55
69704;BMP280;56967;43.538;-5.646;2022-11-15T10:02:39;100542.31;;;25.97
69704;BMP280;56967;43.538;-5.646;2022-11-15T10:05:11;100550.44;;;26.79
69704;BMP280;56967;43.538;-5.646;2022-11-15T10:07:54;100557.19;;;25.19
69704;BMP280;56967;43.538;-5.646;2022-11-15T10:13:02;100563.06;;;26.46
69704;BMP280;56967;43.538;-5.646;2022-11-15T10:15:28;100560.88;;;26.81
69704;BMP280;56967;43.538;-5.646;2022-11-15T10:21:20;100565.00;;;26.25
69704;BMP280;56967;43.538;-5.646;2022-11-15T10:23:46;100563.81;;;26.35
69704;BMP280;56967;43.538;-5.646;2022-11-15T10:26:15;100571.16;;;27.56
69704;BMP280;56967;43.538;-5.646;2022-11-15T10:28:41;100563.06;;;27.80
69704;BMP280;56967;43.538;-5.646;2022-11-15T10:31:25;100561.00;;;28.41
69704;BMP280;56967;43.538;-5.646;2022-11-15T10:33:59;100573.28;;;27.87
69704;BMP280;56967;43.538;-5.646;2022-11-15T10:36:29;100561.34;;;27.40
69704;BMP280;56967;43.538;-5.646;2022-11-15T10:38:56;100559.41;;;27.28
69704;BMP280;56967;43.538;-5.646;2022-11-15T10:49:24;100560.03;;;29.20
69704;BMP280;56967;43.538;-5.646;2022-11-15T10:54:24;100563.38;;;29.79
69704;BMP280;56967;43.538;-5.646;2022-11-15T10:56:55;100561.81;;;28.69
69704;BMP280;56967;43.538;-5.646;2022-11-15T10:59:31;100557.16;;;30.13
69704;BMP280;56967;43.538;-5.646;2022-11-15T11:01:58;100540.44;;;30.72
69704;BMP280;56967;43.538;-5.646;2022-11-15T11:04:24;100550.72;;;29.68
69704;BMP280;56967;43.538;-5.646;2022-11-15T11:09:33;100554.31;;;28.78
69704;BMP280;56967;43.538;-5.646;2022-11-15T11:12:00;100538.34;;;28.18
69704;BMP280;56967;43.538;-5.646;2022-11-15T11:14:31;100526.94;;;28.25
69704;BMP280;56967;43.538;-5.646;2022-11-15T11:19:56;100523.72;;;28.35
69704;BMP280;56967;43.538;-5.646;2022-11-15T11:22:41;100512.78;;;28.16
69704;BMP280;56967;43.538;-5.646;2022-11-15T11:25:33;100502.25;;;28.26
69704;BMP280;56967;43.538;-5.646;2022-11-15T11:39:21;100470.09;;;26.64
69704;BMP280;56967;43.538;-5.646;2022-11-15T11:41:58;100468.00;;;27.27
69704;BMP280;56967;43.538;-5.646;2022-11-15T11:47:05;100451.09;;;27.30
69704;BMP280;56967;43.538;-5.646;2022-11-15T11:49:45;100451.78;;;27.39
69704;BMP280;56967;43.538;-5.646;2022-11-15T11:52:32;100435.84;;;25.91
69704;BMP280;56967;43.538;-5.646;2022-11-15T11:57:54;100422.25;;;25.67
69704;BMP280;56967;43.538;-5.646;2022-11-15T12:00:26;100406.75;;;25.84
69704;BMP280;56967;43.538;-5.646;2022-11-15T12:03:21;100421.84;;;24.81
69704;BMP280;56967;43.538;-5.646;2022-11-15T12:06:00;100420.25;;;24.88
69704;BMP280;56967;43.538;-5.646;2022-11-15T12:08:58;100416.56;;;25.39
69704;BMP280;56967;43.538;-5.646;2022-11-15T12:11:28;100415.09;;;25.71
69704;BMP280;56967;43.538;-5.646;2022-11-15T12:14:00;100395.38;;;25.99
69704;BMP280;56967;43.538;-5.646;2022-11-15T12:16:30;100399.28;;;26.23
69704;BMP280;56967;43.538;-5.646;2022-11-15T12:19:00;100393.47;;;26.00
69704;BMP280;56967;43.538;-5.646;2022-11-15T12:24:24;100399.47;;;26.05
69704;BMP280;56967;43.538;-5.646;2022-11-15T12:26:56;100399.00;;;25.83
69704;BMP280;56967;43.538;-5.646;2022-11-15T12:29:30;100395.53;;;25.82
69704;BMP280;56967;43.538;-5.646;2022-11-15T12:31:57;100409.78;;;26.36
69704;BMP280;56967;43.538;-5.646;2022-11-15T12:34:29;100406.03;;;26.61
69704;BMP280;56967;43.538;-5.646;2022-11-15T12:37:00;100401.88;;;25.78
69704;BMP280;56967;43.538;-5.646;2022-11-15T12:40:04;100389.06;;;25.54
69704;BMP280;56967;43.538;-5.646;2022-11-15T12:44:58;100391.97;;;25.70
69704;BMP280;56967;43.538;-5.646;2022-11-15T12:47:26;100387.00;;;25.31
69704;BMP280;56967;43.538;-5.646;2022-11-15T12:49:52;100394.44;;;25.63
69704;BMP280;56967;43.538;-5.646;2022-11-15T12:52:18;100390.31;;;25.77
69704;BMP280;56967;43.538;-5.646;2022-11-15T13:00:20;100362.28;;;25.78
69704;BMP280;56967;43.538;-5.646;2022-11-15T13:02:48;100382.50;;;26.05
69704;BMP280;56967;43.538;-5.646;2022-11-15T13:12:55;100373.06;;;25.99
69704;BMP280;56967;43.538;-5.646;2022-11-15T13:17:54;100381.06;;;28.16
69704;BMP280;56967;43.538;-5.646;2022-11-15T13:20:29;100384.03;;;26.83
69704;BMP280;56967;43.538;-5.646;2022-11-15T13:28:07;100374.72;;;26.93
69704;BMP280;56967;43.538;-5.646;2022-11-15T13:30:36;100364.63;;;27.66
69704;BMP280;56967;43.538;-5.646;2022-11-15T13:33:13;100368.84;;;28.06
69704;BMP280;56967;43.538;-5.646;2022-11-15T13:35:47;100381.16;;;27.92
69704;BMP280;56967;43.538;-5.646;2022-11-15T13:38:34;100370.78;;;27.39
69704;BMP280;56967;43.538;-5.646;2022-11-15T13:41:17;100366.88;;;28.35
69704;BMP280;56967;43.538;-5.646;2022-11-15T13:43:43;100363.88;;;28.08
69704;BMP280;56967;43.538;-5.646;2022-11-15T13:46:16;100361.66;;;28.57
69704;BMP280;56967;43.538;-5.646;2022-11-15T13:48:44;100374.72;;;28.24
69704;BMP280;56967;43.538;-5.646;2022-11-15T13:53:48;100364.25;;;28.38
69704;BMP280;56967;43.538;-5.646;2022-11-15T13:56:16;100367.63;;;28.20
69704;BMP280;56967;43.538;-5.646;2022-11-15T13:58:44;100365.63;;;28.94
69704;BMP280;56967;43.538;-5.646;2022-11-15T14:01:16;100361.81;;;28.80
69704;BMP280;56967;43.538;-5.646;2022-11-15T14:04:00;100356.66;;;28.59
69704;BMP280;56967;43.538;-5.646;2022-11-15T14:06:29;100351.00;;;28.18
69704;BMP280;56967;43.538;-5.646;2022-11-15T14:11:35;100357.84;;;27.20
69704;BMP280;56967;43.538;-5.646;2022-11-15T14:16:47;100361.13;;;26.89
69704;BMP280;56967;43.538;-5.646;2022-11-15T14:19:34;100360.88;;;26.70
69704;BMP280;56967;43.538;-5.646;2022-11-15T14:22:21;100361.50;;;26.31
69704;BMP280;56967;43.538;-5.646;2022-11-15T14:25:05;100354.41;;;27.07
69704;BMP280;56967;43.538;-5.646;2022-11-15T14:27:32;100358.16;;;27.19
69704;BMP280;56967;43.538;-5.646;2022-11-15T14:29:57;100350.16;;;27.34
69704;BMP280;56967;43.538;-5.646;2022-11-15T14:32:46;100347.91;;;27.36
69704;BMP280;56967;43.538;-5.646;2022-11-15T14:35:18;100350.63;;;27.48
69704;BMP280;56967;43.538;-5.646;2022-11-15T14:37:44;100361.66;;;27.31
69704;BMP280;56967;43.538;-5.646;2022-11-15T14:40:13;100367.66;;;27.13
69704;BMP280;56967;43.538;-5.646;2022-11-15T14:42:40;100367.41;;;27.18
69704;BMP280;56967;43.538;-5.646;2022-11-15T14:45:14;100366.44;;;27.89
69704;BMP280;56967;43.538;-5.646;2022-11-15T14:47:48;100371.59;;;27.03
69704;BMP280;56967;43.538;-5.646;2022-11-15T14:50:16;100377.75;;;26.91
69704;BMP280;56967;43.538;-5.646;2022-11-15T14:52:42;100386.44;;;26.85
69704;BMP280;56967;43.538;-5.646;2022-11-15T14:55:37;100380.00;;;26.21
69704;BMP280;56967;43.538;-5.646;2022-11-15T14:58:04;100395.34;;;26.08
69704;BMP280;56967;43.538;-5.646;2022-11-15T15:00:35;100391.91;;;26.32
69704;BMP280;56967;43.538;-5.646;2022-11-15T15:03:04;100407.91;;;26.16
69704;BMP280;56967;43.538;-5.646;2022-11-15T15:05:39;100402.44;;;25.92
69704;BMP280;56967;43.538;-5.646;2022-11-15T15:08:05;100409.34;;;26.13
69704;BMP280;56967;43.538;-5.646;2022-11-15T15:10:35;100408.44;;;26.09
69704;BMP280;56967;43.538;-5.646;2022-11-15T15:13:02;100423.53;;;26.43
69704;BMP280;56967;43.538;-5.646;2022-11-15T15:15:37;100426.34;;;26.47
69704;BMP280;56967;43.538;-5.646;2022-11-15T15:18:04;100431.06;;;26.50
69704;BMP280;56967;43.538;-5.646;2022-11-15T15:20:31;100440.25;;;26.16
69704;BMP280;56967;43.538;-5.646;2022-11-15T15:22:57;100435.34;;;26.51
69704;BMP280;56967;43.538;-5.646;2022-11-15T15:25:27;100446.22;;;26.54
69704;BMP280;56967;43.538;-5.646;2022-11-15T15:27:54;100453.59;;;26.12
69704;BMP280;56967;43.538;-5.646;2022-11-15T15:30:21;100448.09;;;25.88
69704;BMP280;56967;43.538;-5.646;2022-11-15T15:32:46;100459.53;;;27.16
69704;BMP280;56967;43.538;-5.646;2022-11-15T15:35:13;100466.91;;;27.67
69704;BMP280;56967;43.538;-5.646;2022-11-15T15:37:40;100472.22;;;27.64
69704;BMP280;56967;43.538;-5.646;2022-11-15T15:40:14;100459.75;;;27.23
69704;BMP280;56967;43.538;-5.646;2022-11-15T15:42:40;100462.97;;;28.60
69704;BMP280;56967;43.538;-5.646;2022-11-15T15:45:07;100468.41;;;28.75
69704;BMP280;56967;43.538;-5.646;2022-11-15T15:47:32;100471.63;;;28.96
69704;BMP280;56967;43.538;-5.646;2022-11-15T15:49:58;100474.44;;;27.74